Time;durP1;ratioP1;P1;durP2;ratioP2;P2;SDS_P1;SDS_P2;PMS_P1;PMS_P2;Temp;Humidity;BMP_temperature;BMP_pressure;BME280_temperature;BME280_humidity;BME280_pressure;Samples;Min_cycle;Max_cycle;Signal;HPM_P1;HPM_P2
2021/12/22 00:00:14;;;;;;;14.77;6.83;;;;;;;0.56;65.32;102534.19;4941561;28;97254;-89
2021/12/22 00:02:46;;;;;;;17.97;7.07;;;;;;;0.55;65.48;102529.13;4959975;28;97322;-89
2021/12/22 00:05:28;;;;;;;17.83;8.20;;;;;;;0.54;65.23;102524.88;4942093;28;98881;-88
2021/12/22 00:07:54;;;;;;;17.43;6.70;;;;;;;0.50;65.27;102514.00;4955371;28;98665;-89
2021/12/22 00:10:21;;;;;;;17.23;7.30;;;;;;;0.54;65.09;102522.97;4959393;28;97291;-89
2021/12/22 00:12:47;;;;;;;19.60;6.50;;;;;;;0.53;65.17;102534.16;4945314;28;97055;-89
2021/12/22 00:15:14;;;;;;;17.60;7.90;;;;;;;0.62;65.36;102526.47;4945921;28;98970;-88
2021/12/22 00:17:39;;;;;;;16.73;7.87;;;;;;;0.66;65.23;102521.84;4945951;28;97944;-89
2021/12/22 00:20:06;;;;;;;19.33;6.60;;;;;;;0.66;65.39;102528.03;4944933;28;96849;-89
2021/12/22 00:22:32;;;;;;;18.33;7.93;;;;;;;0.68;65.03;102538.50;4945725;28;96988;-89
2021/12/22 00:24:57;;;;;;;19.80;7.80;;;;;;;0.70;65.04;102523.41;4948092;28;97157;-89
2021/12/22 00:27:23;;;;;;;18.40;7.87;;;;;;;0.74;65.10;102513.38;4947426;28;96725;-88
2021/12/22 00:29:51;;;;;;;23.00;8.93;;;;;;;0.74;65.09;102513.38;4946577;28;97220;-89
2021/12/22 00:32:17;;;;;;;20.30;9.20;;;;;;;0.74;64.94;102529.63;4942695;28;97197;-88
2021/12/22 00:34:46;;;;;;;17.27;7.87;;;;;;;0.74;65.13;102535.03;4946013;28;96790;-89
2021/12/22 00:37:13;;;;;;;17.30;7.60;;;;;;;0.77;64.92;102517.25;4947832;28;97931;-88
2021/12/22 00:39:38;;;;;;;18.40;8.80;;;;;;;0.77;65.11;102520.75;4942072;28;97499;-89
2021/12/22 00:42:04;;;;;;;21.97;8.90;;;;;;;0.76;65.18;102516.47;4940314;28;97427;-88
2021/12/22 00:44:29;;;;;;;16.77;8.13;;;;;;;0.68;64.84;102517.59;4944354;28;96820;-88
2021/12/22 00:46:55;;;;;;;16.90;7.50;;;;;;;0.74;65.05;102516.09;4946113;28;96784;-89
2021/12/22 00:49:20;;;;;;;18.97;8.10;;;;;;;0.77;64.87;102517.25;4944641;28;97084;-88
2021/12/22 00:51:46;;;;;;;20.73;8.60;;;;;;;0.76;64.76;102515.72;4946849;28;96871;-89
2021/12/22 00:54:11;;;;;;;20.47;7.70;;;;;;;0.75;65.15;102525.78;4960067;28;98688;-89
2021/12/22 00:56:38;;;;;;;21.47;8.33;;;;;;;0.69;64.88;102508.34;4941093;28;96810;-88
2021/12/22 00:59:03;;;;;;;21.03;8.33;;;;;;;0.65;64.84;102509.47;4942344;28;96642;-91
2021/12/22 01:01:29;;;;;;;17.30;8.80;;;;;;;0.67;65.02;102521.47;4945052;28;96960;-88
2021/12/22 01:03:56;;;;;;;19.10;9.10;;;;;;;0.66;65.27;102514.50;4934708;28;96785;-89
2021/12/22 01:06:22;;;;;;;22.60;8.03;;;;;;;0.68;65.14;102525.72;4956417;28;100698;-89
2021/12/22 01:08:48;;;;;;;15.90;7.60;;;;;;;0.72;65.24;102531.19;4944713;28;97014;-88
2021/12/22 01:11:13;;;;;;;20.17;9.30;;;;;;;0.73;65.19;102559.81;4946015;28;97422;-88
2021/12/22 01:13:39;;;;;;;21.37;9.53;;;;;;;0.71;65.08;102518.78;4945492;28;97224;-88
2021/12/22 01:16:05;;;;;;;20.50;9.37;;;;;;;0.78;65.13;102529.66;4945620;28;96796;-88
2021/12/22 01:18:32;;;;;;;21.40;9.30;;;;;;;0.78;65.17;102508.00;4945537;28;96783;-89
2021/12/22 01:23:32;;;;;;;17.53;8.27;;;;;;;0.80;64.85;102516.50;4946782;28;97313;-88
2021/12/22 01:25:58;;;;;;;19.27;8.77;;;;;;;0.82;64.95;102522.31;4941838;28;98602;-88
2021/12/22 01:28:24;;;;;;;17.80;8.93;;;;;;;0.78;64.75;102516.13;4947350;28;96578;-88
2021/12/22 01:30:51;;;;;;;16.50;7.73;;;;;;;0.80;64.88;102521.16;4942797;28;97067;-89
2021/12/22 01:33:17;;;;;;;22.43;9.20;;;;;;;0.80;64.63;102531.97;4943953;28;97936;-88
2021/12/22 01:35:43;;;;;;;19.90;9.30;;;;;;;0.76;64.75;102529.28;4945732;28;97027;-89
2021/12/22 01:38:09;;;;;;;23.83;10.17;;;;;;;0.76;65.12;102518.44;4942161;28;97010;-88
2021/12/22 01:40:38;;;;;;;20.37;10.37;;;;;;;0.80;64.83;102521.16;4943440;28;96814;-89
2021/12/22 01:43:05;;;;;;;22.57;9.10;;;;;;;0.77;64.76;102526.16;4942351;28;100079;-88
2021/12/22 01:45:55;;;;;;;21.93;9.50;;;;;;;0.75;64.64;102527.69;4960909;28;99033;-88
2021/12/22 01:51:38;;;;;;;17.80;8.33;;;;;;;0.75;64.74;102535.81;4943485;28;97494;-89
2021/12/22 01:54:28;;;;;;;15.90;7.47;;;;;;;0.71;64.57;102535.03;4941679;28;100686;-89
2021/12/22 01:56:59;;;;;;;16.97;7.67;;;;;;;0.69;64.90;102535.44;4936950;28;101861;-88
2021/12/22 01:59:25;;;;;;;18.70;7.47;;;;;;;0.66;64.95;102529.97;4944155;28;96882;-90
2021/12/22 02:01:51;;;;;;;17.47;7.70;;;;;;;0.64;65.20;102535.78;4941026;28;97330;-88
2021/12/22 02:04:16;;;;;;;14.50;7.43;;;;;;;0.61;64.97;102544.63;4940253;28;99519;-86
2021/12/22 02:06:45;;;;;;;19.87;9.20;;;;;;;0.66;65.01;102535.38;4955076;28;97463;-87
2021/12/22 02:09:15;;;;;;;15.90;7.90;;;;;;;0.68;64.68;102528.44;4938830;28;96943;-87
2021/12/22 02:11:40;;;;;;;16.40;7.43;;;;;;;0.61;64.80;102530.34;4938883;28;97127;-87
2021/12/22 02:14:07;;;;;;;17.27;8.40;;;;;;;0.61;64.81;102520.25;4929607;28;96998;-87
2021/12/22 02:16:37;;;;;;;16.57;8.20;;;;;;;0.70;64.80;102555.13;4941115;28;97370;-87
2021/12/22 02:19:06;;;;;;;20.70;8.70;;;;;;;0.70;64.69;102538.88;4943696;28;96987;-86
2021/12/22 02:21:36;;;;;;;16.90;7.97;;;;;;;0.67;64.66;102536.94;4939590;28;96699;-87
2021/12/22 02:24:02;;;;;;;22.57;8.27;;;;;;;0.66;64.80;102533.47;4940165;28;102313;-87
2021/12/22 02:26:37;;;;;;;21.30;8.93;;;;;;;0.66;65.08;102525.34;4953947;28;97242;-87
2021/12/22 02:29:07;;;;;;;18.50;8.00;;;;;;;0.69;65.07;102532.72;4940773;28;97079;-88
2021/12/22 02:31:40;;;;;;;18.73;8.93;;;;;;;0.69;64.86;102550.88;4954162;28;96939;-87
2021/12/22 02:34:06;;;;;;;18.93;8.57;;;;;;;0.71;64.85;102529.63;4933381;28;97400;-87
2021/12/22 02:36:38;;;;;;;24.47;9.60;;;;;;;0.71;64.70;102535.03;4937072;28;96672;-87
2021/12/22 02:39:04;;;;;;;18.70;8.30;;;;;;;0.71;64.99;102518.78;4940462;28;97334;-87
2021/12/22 02:41:31;;;;;;;21.20;9.20;;;;;;;0.70;64.70;102528.06;4954241;28;97180;-87
2021/12/22 02:43:59;;;;;;;19.97;8.07;;;;;;;0.69;65.02;102526.50;4937358;28;97266;-87
2021/12/22 02:46:28;;;;;;;20.83;8.43;;;;;;;0.64;64.97;102524.94;4938354;28;97692;-87
2021/12/22 02:48:54;;;;;;;19.80;9.20;;;;;;;0.65;64.84;102520.31;4934415;28;97296;-87
2021/12/22 02:51:22;;;;;;;18.17;8.00;;;;;;;0.67;64.97;102529.63;4941215;28;97304;-87
2021/12/22 03:04:34;;;;;;;21.37;9.10;;;;;;;0.67;65.01;102526.13;4946251;28;96815;-87
2021/12/22 03:07:05;;;;;;;20.30;7.57;;;;;;;0.65;64.80;102536.56;4955669;28;97515;-87
2021/12/22 03:09:34;;;;;;;22.67;8.13;;;;;;;0.66;65.03;102511.00;4941361;28;97109;-87
2021/12/22 03:12:03;;;;;;;18.40;8.73;;;;;;;0.66;64.93;102516.44;4942309;28;96874;-86
2021/12/22 03:14:28;;;;;;;20.03;7.77;;;;;;;0.66;64.93;102532.69;4936906;28;97971;-87
2021/12/22 03:16:55;;;;;;;19.70;7.93;;;;;;;0.59;64.88;102522.56;4942625;28;99653;-86
2021/12/22 03:19:24;;;;;;;20.27;7.80;;;;;;;0.59;65.14;102527.25;4939215;28;96949;-87
2021/12/22 03:21:58;;;;;;;20.43;8.67;;;;;;;0.63;65.07;102530.75;4934716;28;97081;-87
2021/12/22 03:24:24;;;;;;;15.00;6.90;;;;;;;0.63;64.99;102517.19;4942415;28;100965;-87
2021/12/22 03:26:49;;;;;;;20.70;8.30;;;;;;;0.65;64.96;102512.97;4943717;28;98967;-86
2021/12/22 03:29:17;;;;;;;24.17;9.00;;;;;;;0.68;64.68;102520.31;4942878;28;98008;-86
2021/12/22 03:31:43;;;;;;;18.60;7.63;;;;;;;0.65;65.02;102512.97;4939008;28;96898;-87
2021/12/22 03:34:10;;;;;;;24.97;7.97;;;;;;;0.66;64.68;102505.59;4940981;28;97334;-86
2021/12/22 03:36:37;;;;;;;18.30;7.77;;;;;;;0.63;64.94;102496.28;4956519;28;96970;-86
2021/12/22 03:39:05;;;;;;;18.67;8.47;;;;;;;0.65;64.93;102493.22;4939193;28;96926;-87
2021/12/22 03:41:31;;;;;;;20.33;7.40;;;;;;;0.66;64.53;102517.22;4945036;28;97440;-87
2021/12/22 03:43:57;;;;;;;17.20;7.90;;;;;;;0.64;64.82;102497.84;4939824;28;99791;-86
2021/12/22 03:46:22;;;;;;;23.30;9.17;;;;;;;0.64;64.79;102503.28;4943233;28;97668;-86
2021/12/22 03:48:48;;;;;;;19.10;7.07;;;;;;;0.62;64.87;102516.41;4935209;28;96772;-87
2021/12/22 03:51:13;;;;;;;17.83;7.50;;;;;;;0.66;64.76;102516.44;4942344;28;97095;-87
2021/12/22 03:53:39;;;;;;;21.43;8.93;;;;;;;0.57;64.74;102505.16;4939857;28;98513;-88
2021/12/22 03:56:05;;;;;;;20.73;8.03;;;;;;;0.67;64.61;102497.09;4941293;28;97888;-89
2021/12/22 03:58:30;;;;;;;18.30;8.83;;;;;;;0.59;64.56;102490.09;4946021;28;96785;-88
2021/12/22 04:00:56;;;;;;;21.00;8.03;;;;;;;0.56;64.87;102498.97;4945721;28;97413;-87
2021/12/22 04:03:27;;;;;;;15.27;6.20;;;;;;;0.55;64.59;102494.69;4942455;28;99191;-88
2021/12/22 04:05:52;;;;;;;15.10;7.03;;;;;;;0.60;64.71;102501.69;4954359;28;97638;-87
2021/12/22 04:08:18;;;;;;;18.43;7.10;;;;;;;0.59;64.71;102500.16;4942402;28;97460;-87
2021/12/22 04:10:49;;;;;;;20.67;7.93;;;;;;;0.63;64.88;102493.56;4944149;28;97459;-87
2021/12/22 04:13:15;;;;;;;22.13;9.07;;;;;;;0.64;64.69;102491.66;4941542;28;98391;-87
2021/12/22 04:15:42;;;;;;;22.37;8.77;;;;;;;0.61;64.91;102509.44;4942376;28;101065;-87
2021/12/22 04:18:07;;;;;;;20.77;8.43;;;;;;;0.66;64.69;102492.84;4939887;28;97374;-87
2021/12/22 04:20:33;;;;;;;19.20;8.30;;;;;;;0.64;64.68;102491.66;4944728;28;97510;-86
2021/12/22 04:22:59;;;;;;;15.93;7.67;;;;;;;0.62;64.72;102488.56;4944615;28;97550;-87
2021/12/22 04:25:26;;;;;;;20.97;8.40;;;;;;;0.64;64.87;102499.78;4940784;28;97604;-87
2021/12/22 04:27:57;;;;;;;19.47;8.50;;;;;;;0.59;64.74;102495.50;4933483;28;99418;-86
2021/12/22 04:30:25;;;;;;;20.07;8.60;;;;;;;0.61;64.70;102497.84;4942484;28;98195;-87
2021/12/22 04:32:51;;;;;;;20.17;8.00;;;;;;;0.58;64.71;102501.31;4934769;28;99599;-86
2021/12/22 04:35:17;;;;;;;19.70;8.47;;;;;;;0.53;64.97;102529.50;4940697;28;97227;-86
2021/12/22 04:37:43;;;;;;;16.13;7.00;;;;;;;0.52;64.83;102489.28;4938568;28;96795;-86
2021/12/22 04:40:13;;;;;;;16.50;7.10;;;;;;;0.55;64.84;102486.59;4942185;28;96852;-86
2021/12/22 04:42:40;;;;;;;18.20;7.13;;;;;;;0.53;64.67;102507.84;4948292;28;96797;-87
2021/12/22 04:45:07;;;;;;;18.63;7.13;;;;;;;0.55;64.63;102485.81;4941927;28;97499;-87
2021/12/22 04:47:33;;;;;;;17.63;7.63;;;;;;;0.52;64.63;102487.34;4937637;28;96967;-87
2021/12/22 04:50:00;;;;;;;17.70;7.43;;;;;;;0.55;65.05;102494.69;4939530;28;97118;-87
2021/12/22 04:52:34;;;;;;;14.57;7.60;;;;;;;0.56;64.90;102509.03;4943160;28;100984;-87
2021/12/22 04:55:03;;;;;;;15.87;8.23;;;;;;;0.58;64.98;102495.88;4941930;28;98604;-87
2021/12/22 04:57:30;;;;;;;20.27;7.80;;;;;;;0.55;64.97;102513.66;4956915;28;96786;-87
2021/12/22 04:59:56;;;;;;;17.80;7.90;;;;;;;0.56;64.85;102514.44;4936970;28;97347;-87
2021/12/22 05:02:22;;;;;;;19.30;8.50;;;;;;;0.60;65.01;102491.66;4939726;28;97575;-87
2021/12/22 05:04:47;;;;;;;20.00;9.43;;;;;;;0.56;64.57;102490.06;4950669;28;98239;-87
2021/12/22 05:07:13;;;;;;;18.87;8.23;;;;;;;0.55;65.01;102497.41;4943020;28;97072;-86
2021/12/22 05:09:38;;;;;;;19.50;8.47;;;;;;;0.56;64.90;102495.50;4936575;28;96899;-87
2021/12/22 05:12:04;;;;;;;17.23;8.37;;;;;;;0.57;64.72;102486.19;4938021;28;96813;-87
2021/12/22 05:14:30;;;;;;;22.10;7.70;;;;;;;0.61;65.03;102490.47;4939314;28;97325;-87
2021/12/22 05:17:00;;;;;;;21.00;8.40;;;;;;;0.61;64.60;102485.06;4938076;28;96674;-87
2021/12/22 05:19:27;;;;;;;14.90;7.20;;;;;;;0.64;64.62;102483.53;4948903;28;97013;-87
2021/12/22 05:22:05;;;;;;;15.70;7.50;;;;;;;0.64;64.71;102488.94;4965791;28;97087;-88
2021/12/22 05:24:32;;;;;;;19.17;8.20;;;;;;;0.64;64.86;102487.03;4899431;28;98641;-88
2021/12/22 05:26:57;;;;;;;15.53;8.17;;;;;;;0.63;64.82;102492.81;4953081;28;97326;-89
2021/12/22 05:29:23;;;;;;;13.47;7.70;;;;;;;0.63;64.95;102498.25;4943272;28;97227;-88
2021/12/22 05:31:53;;;;;;;14.73;8.23;;;;;;;0.64;64.80;102486.25;4944352;28;97755;-88
2021/12/22 05:34:19;;;;;;;18.43;8.40;;;;;;;0.58;64.89;102501.31;4944409;28;100222;-88
2021/12/22 05:36:44;;;;;;;17.17;8.70;;;;;;;0.59;64.81;102494.75;4944023;28;97084;-88
2021/12/22 05:39:09;;;;;;;16.13;7.23;;;;;;;0.57;64.88;102484.28;4945736;28;97263;-90
2021/12/22 05:41:35;;;;;;;16.37;8.30;;;;;;;0.57;64.90;102505.16;4943719;28;97608;-88
2021/12/22 05:44:00;;;;;;;15.70;7.67;;;;;;;0.59;64.75;102484.66;4942367;28;97429;-88
2021/12/22 05:46:25;;;;;;;16.53;7.60;;;;;;;0.58;64.88;102482.34;4942267;28;96902;-88
2021/12/22 05:48:52;;;;;;;16.63;7.80;;;;;;;0.54;64.99;102482.34;4943379;28;97217;-90
2021/12/22 05:51:18;;;;;;;22.00;8.17;;;;;;;0.52;64.62;102489.28;4941674;28;97610;-89
2021/12/22 05:53:43;;;;;;;23.70;7.90;;;;;;;0.52;64.98;102505.53;4965049;28;99461;-88
2021/12/22 05:56:09;;;;;;;13.53;7.60;;;;;;;0.51;65.11;102503.97;4943687;28;96853;-89
2021/12/22 05:58:34;;;;;;;18.57;7.80;;;;;;;0.47;64.96;102476.88;4944415;28;97057;-88
2021/12/22 06:01:00;;;;;;;17.97;8.60;;;;;;;0.43;64.98;102476.09;4945359;28;97010;-88
2021/12/22 06:03:25;;;;;;;17.90;8.10;;;;;;;0.48;64.78;102491.94;4940871;28;98367;-90
2021/12/22 06:05:50;;;;;;;15.33;8.27;;;;;;;0.53;64.95;102482.69;4944825;28;96808;-90
2021/12/22 06:08:16;;;;;;;18.33;8.17;;;;;;;0.56;64.87;102492.78;4944702;28;96928;-88
2021/12/22 06:10:41;;;;;;;19.67;9.30;;;;;;;0.59;64.94;102490.09;4943949;28;98059;-89
2021/12/22 06:13:09;;;;;;;18.57;8.10;;;;;;;0.55;64.83;102492.00;4960209;28;98406;-88
2021/12/22 06:15:36;;;;;;;15.73;8.20;;;;;;;0.55;64.81;102470.34;4939576;28;97339;-88
2021/12/22 06:18:04;;;;;;;16.80;7.97;;;;;;;0.58;64.89;102485.06;4942995;28;97324;-88
2021/12/22 06:20:31;;;;;;;19.73;9.40;;;;;;;0.55;64.82;102481.16;4945162;28;97263;-88
2021/12/22 06:22:57;;;;;;;16.60;7.80;;;;;;;0.56;64.83;102471.91;4942152;28;97267;-89
2021/12/22 06:25:24;;;;;;;17.37;7.40;;;;;;;0.55;64.84;102502.81;4944564;28;96763;-89
2021/12/22 06:27:50;;;;;;;15.77;6.97;;;;;;;0.56;64.80;102471.13;4945352;28;96979;-88
2021/12/22 06:30:16;;;;;;;18.43;8.03;;;;;;;0.54;64.71;102485.03;4947621;28;97645;-88
2021/12/22 06:32:41;;;;;;;20.97;8.30;;;;;;;0.54;64.73;102498.59;4942925;28;98465;-88
2021/12/22 06:35:08;;;;;;;16.43;8.13;;;;;;;0.55;65.12;102470.34;4947785;28;97194;-89
2021/12/22 06:37:33;;;;;;;26.77;8.63;;;;;;;0.58;64.88;102480.41;4948085;28;97162;-89
2021/12/22 06:39:59;;;;;;;16.90;7.43;;;;;;;0.56;64.49;102479.25;4947323;28;98136;-88
2021/12/22 06:42:25;;;;;;;16.63;7.93;;;;;;;0.54;64.75;102484.25;4945622;28;97145;-88
2021/12/22 06:44:59;;;;;;;20.50;8.00;;;;;;;0.48;64.69;102473.00;4937866;28;96990;-89
2021/12/22 06:47:24;;;;;;;18.20;8.30;;;;;;;0.48;64.86;102464.88;4937907;28;97285;-87
2021/12/22 06:49:50;;;;;;;18.00;8.33;;;;;;;0.48;64.97;102469.53;4941475;28;98690;-87
2021/12/22 06:52:15;;;;;;;16.27;7.63;;;;;;;0.46;64.98;102467.19;4939353;28;97279;-87
2021/12/22 06:54:41;;;;;;;19.73;8.83;;;;;;;0.49;64.83;102493.50;4943076;28;97489;-87
2021/12/22 06:57:06;;;;;;;17.70;8.40;;;;;;;0.51;64.76;102468.75;4944554;28;98204;-87
2021/12/22 06:59:32;;;;;;;22.47;7.73;;;;;;;0.48;64.77;102486.53;4939239;28;96959;-87
2021/12/22 07:01:58;;;;;;;18.77;8.30;;;;;;;0.47;64.70;102474.16;4946231;28;98665;-88
2021/12/22 07:04:23;;;;;;;13.30;7.33;;;;;;;0.48;64.59;102466.81;4943027;28;96690;-88
2021/12/22 07:06:49;;;;;;;15.27;6.93;;;;;;;0.49;65.42;102471.06;4963319;28;97242;-89
2021/12/22 07:09:14;;;;;;;15.10;7.30;;;;;;;0.50;64.86;102469.94;4959773;28;99575;-88
2021/12/22 07:11:40;;;;;;;17.40;7.30;;;;;;;0.49;64.66;102465.66;4950894;28;97594;-88
2021/12/22 07:14:07;;;;;;;15.67;7.67;;;;;;;0.49;64.93;102462.94;4945843;28;97101;-89
2021/12/22 07:16:33;;;;;;;16.40;7.90;;;;;;;0.50;64.59;102472.63;4967416;28;96601;-88
2021/12/22 07:18:58;;;;;;;17.27;8.50;;;;;;;0.52;64.58;102473.03;4945472;28;98035;-88
2021/12/22 07:21:24;;;;;;;17.03;7.50;;;;;;;0.53;64.86;102469.16;4945793;28;96812;-89
2021/12/22 07:23:50;;;;;;;16.67;7.43;;;;;;;0.56;64.68;102498.19;4944019;28;97263;-88
2021/12/22 07:26:15;;;;;;;18.00;8.43;;;;;;;0.55;64.87;102523.72;4944614;28;96827;-88
2021/12/22 07:28:43;;;;;;;17.87;7.87;;;;;;;0.56;64.78;102468.41;4937035;28;96868;-88
2021/12/22 07:31:08;;;;;;;20.53;7.43;;;;;;;0.58;64.65;102474.22;4958924;28;96760;-88
2021/12/22 07:33:34;;;;;;;20.40;7.87;;;;;;;0.55;64.43;102478.47;4941560;28;96718;-88
2021/12/22 07:36:03;;;;;;;15.27;6.90;;;;;;;0.56;64.97;102481.94;4958344;28;97068;-89
2021/12/22 07:38:46;;;;;;;16.03;7.27;;;;;;;0.54;64.79;102470.72;4946632;28;97702;-89
2021/12/22 07:41:12;;;;;;;16.60;7.17;;;;;;;0.55;64.74;102483.09;4944094;28;102979;-88
2021/12/22 07:43:37;;;;;;;16.40;6.97;;;;;;;0.49;64.86;102485.38;4945276;28;97062;-89
2021/12/22 07:46:04;;;;;;;15.20;7.00;;;;;;;0.44;64.84;102498.50;4945226;28;97504;-88
2021/12/22 07:48:29;;;;;;;16.33;7.53;;;;;;;0.53;64.96;102501.66;4966878;28;99572;-88
2021/12/22 07:50:55;;;;;;;16.53;7.07;;;;;;;0.52;64.97;102492.78;4945901;28;97868;-88
2021/12/22 07:53:21;;;;;;;16.23;7.50;;;;;;;0.55;64.83;102478.47;4945708;28;96474;-89
2021/12/22 07:55:47;;;;;;;20.37;8.83;;;;;;;0.58;64.74;102479.63;4947427;28;97120;-90
2021/12/22 07:58:12;;;;;;;20.07;8.03;;;;;;;0.59;64.58;102489.31;4946054;28;98785;-89
2021/12/22 08:00:38;;;;;;;15.37;7.13;;;;;;;0.59;64.75;102492.78;4946466;28;96801;-89
2021/12/22 08:03:05;;;;;;;16.57;7.10;;;;;;;0.61;64.68;102490.47;4946726;28;96750;-89
2021/12/22 08:05:31;;;;;;;16.20;7.97;;;;;;;0.59;64.49;102481.97;4946934;28;96951;-88
2021/12/22 08:07:58;;;;;;;16.10;6.97;;;;;;;0.61;64.93;102490.47;4941987;28;98246;-89
2021/12/22 08:10:23;;;;;;;18.33;7.60;;;;;;;0.52;64.62;102513.66;4945415;28;98110;-89
2021/12/22 08:12:49;;;;;;;17.60;8.93;;;;;;;0.62;64.73;102489.34;4942617;28;96898;-90
2021/12/22 08:15:15;;;;;;;18.50;8.30;;;;;;;0.60;64.72;102480.03;4944404;28;96992;-88
2021/12/22 08:17:41;;;;;;;19.40;8.13;;;;;;;0.61;64.61;102487.00;4945175;28;99887;-89
2021/12/22 08:20:07;;;;;;;20.67;8.93;;;;;;;0.59;64.72;102487.38;4945624;28;96800;-89
2021/12/22 08:22:33;;;;;;;23.30;9.00;;;;;;;0.59;64.71;102486.63;4943776;28;97581;-88
2021/12/22 08:24:58;;;;;;;21.30;8.40;;;;;;;0.60;64.68;102472.69;4942591;28;97043;-88
2021/12/22 08:27:24;;;;;;;20.00;8.00;;;;;;;0.62;64.80;102523.75;4941745;28;98790;-89
2021/12/22 08:29:50;;;;;;;19.73;8.43;;;;;;;0.56;64.67;102485.44;4940685;28;96858;-89
2021/12/22 08:32:16;;;;;;;20.07;8.60;;;;;;;0.66;65.00;102476.59;4944727;28;96631;-88
2021/12/22 08:34:42;;;;;;;22.60;8.03;;;;;;;0.68;64.96;102473.50;4945710;28;98748;-89
2021/12/22 08:39:55;;;;;;;18.57;7.93;;;;;;;0.70;65.04;102477.38;4938209;28;97182;-88
2021/12/22 08:42:22;;;;;;;19.37;8.27;;;;;;;0.72;64.63;102475.06;4944347;28;96958;-89
2021/12/22 08:44:49;;;;;;;22.47;8.30;;;;;;;0.74;64.90;102497.13;4941440;28;97030;-90
2021/12/22 08:47:15;;;;;;;17.43;7.60;;;;;;;0.78;64.65;102483.63;4940826;28;97589;-88
2021/12/22 08:49:42;;;;;;;23.30;9.37;;;;;;;0.75;64.75;102484.38;4939158;28;99731;-88
2021/12/22 08:52:07;;;;;;;21.77;8.80;;;;;;;0.79;64.84;102481.69;4944210;28;97899;-89
2021/12/22 08:54:33;;;;;;;20.47;8.10;;;;;;;0.77;64.55;102473.91;4958550;28;96918;-88
2021/12/22 08:56:59;;;;;;;23.20;8.40;;;;;;;0.76;64.73;102473.13;4945996;28;97389;-87
2021/12/22 08:59:26;;;;;;;21.67;9.03;;;;;;;0.72;64.77;102477.00;4944168;28;96818;-87
2021/12/22 09:01:52;;;;;;;24.93;8.57;;;;;;;0.68;64.70;102454.53;4941998;28;98653;-86
2021/12/22 09:04:19;;;;;;;20.17;8.90;;;;;;;0.76;64.90;102461.56;4940818;28;97374;-87
2021/12/22 09:06:45;;;;;;;18.90;7.33;;;;;;;0.79;64.81;102468.91;4941213;28;98533;-86
2021/12/22 09:09:11;;;;;;;24.27;8.80;;;;;;;0.82;64.95;102470.06;4937900;28;97166;-86
2021/12/22 09:11:38;;;;;;;16.17;7.43;;;;;;;0.85;64.95;102480.16;4942900;28;96738;-86
2021/12/22 09:14:06;;;;;;;23.33;9.00;;;;;;;0.89;64.77;102473.59;4940250;28;96788;-87
2021/12/22 09:16:32;;;;;;;19.23;8.20;;;;;;;0.92;64.73;102470.13;4942433;28;97339;-86
2021/12/22 09:18:58;;;;;;;24.73;8.53;;;;;;;0.92;64.52;102469.34;4951123;28;97267;-87
2021/12/22 09:21:23;;;;;;;19.03;7.73;;;;;;;0.92;64.75;102491.03;4946562;28;97092;-87
2021/12/22 09:23:49;;;;;;;15.73;7.27;;;;;;;0.92;64.75;102477.50;4946436;28;97033;-89
2021/12/22 09:26:15;;;;;;;19.33;8.40;;;;;;;0.92;64.46;102461.22;4945442;28;96849;-87
2021/12/22 09:28:40;;;;;;;24.20;8.53;;;;;;;0.98;64.71;102457.00;4943357;28;97471;-86
2021/12/22 09:31:07;;;;;;;21.20;6.93;;;;;;;0.99;64.54;102464.72;4945138;28;96997;-86
2021/12/22 09:33:33;;;;;;;24.87;8.67;;;;;;;1.03;64.65;102487.19;4958828;28;96768;-86
2021/12/22 09:36:00;;;;;;;18.90;8.83;;;;;;;1.08;64.72;102456.22;4960549;28;98805;-87
2021/12/22 09:38:26;;;;;;;22.47;8.50;;;;;;;1.09;64.69;102469.38;4946264;28;97873;-87
2021/12/22 09:40:51;;;;;;;29.83;9.73;;;;;;;1.15;64.86;102478.72;4942655;28;97354;-87
2021/12/22 09:43:17;;;;;;;27.60;9.37;;;;;;;1.16;64.87;102458.56;4941160;28;97014;-86
2021/12/22 09:45:46;;;;;;;24.70;8.40;;;;;;;1.23;64.73;102447.75;4937793;28;99624;-86
2021/12/22 09:53:09;;;;;;;20.30;8.07;;;;;;;1.28;64.63;102476.44;4942684;28;96848;-86
2021/12/22 09:55:34;;;;;;;26.73;9.37;;;;;;;1.31;64.58;102460.16;4945650;28;97627;-86
2021/12/22 09:58:04;;;;;;;24.60;9.23;;;;;;;1.33;64.74;102457.84;4946720;28;97571;-86
2021/12/22 10:00:33;;;;;;;19.73;8.70;;;;;;;1.33;64.75;102467.94;4938319;28;96916;-86
2021/12/22 10:02:59;;;;;;;21.10;8.30;;;;;;;1.40;64.62;102463.28;4936028;28;96981;-87
2021/12/22 10:05:24;;;;;;;15.90;7.40;;;;;;;1.46;64.92;102479.97;4943603;28;97597;-86
2021/12/22 10:08:10;;;;;;;17.00;7.80;;;;;;;1.49;64.48;102458.25;4941651;28;97649;-85
2021/12/22 10:10:39;;;;;;;18.73;8.27;;;;;;;1.46;64.46;102461.72;4951314;28;97607;-86
2021/12/22 10:13:10;;;;;;;15.17;7.37;;;;;;;1.47;64.95;102455.16;4958971;28;97912;-86
2021/12/22 10:15:36;;;;;;;20.87;7.83;;;;;;;1.46;64.70;102507.84;4940506;28;97570;-86
2021/12/22 10:18:17;;;;;;;14.50;6.73;;;;;;;1.50;64.49;102467.19;4942163;28;97647;-86
2021/12/22 10:20:45;;;;;;;16.77;7.47;;;;;;;1.51;64.83;102469.50;4934225;28;98275;-87
2021/12/22 10:23:30;;;;;;;19.93;7.60;;;;;;;1.49;64.45;102468.34;4951232;28;97008;-86
2021/12/22 10:25:59;;;;;;;14.77;7.40;;;;;;;1.41;64.64;102469.50;4951775;28;97083;-87
2021/12/22 10:28:27;;;;;;;13.53;6.90;;;;;;;1.44;64.82;102458.63;4940426;28;97428;-86
2021/12/22 10:30:58;;;;;;;19.87;6.70;;;;;;;1.51;64.56;102463.28;4954597;28;96877;-87
2021/12/22 10:33:31;;;;;;;17.00;8.70;;;;;;;1.57;64.65;102464.50;4940069;28;96953;-86
2021/12/22 10:36:09;;;;;;;22.33;8.80;;;;;;;1.65;64.70;102457.91;4938598;28;97561;-86
2021/12/22 10:38:35;;;;;;;18.73;9.33;;;;;;;1.71;64.96;102459.06;4941144;28;96792;-86
2021/12/22 10:41:10;;;;;;;18.53;8.20;;;;;;;1.73;64.65;102454.03;4940019;28;97345;-86
2021/12/22 10:43:42;;;;;;;25.50;9.20;;;;;;;1.79;64.74;102451.72;4952908;28;97089;-87
2021/12/22 10:46:14;;;;;;;25.70;9.63;;;;;;;1.80;64.58;102445.88;4952173;28;99480;-87
2021/12/22 10:51:32;;;;;;;23.87;9.90;;;;;;;1.85;64.58;102431.16;4936799;28;97193;-86
2021/12/22 10:53:59;;;;;;;22.87;9.67;;;;;;;1.88;64.44;102431.13;4939451;28;97716;-86
2021/12/22 10:56:36;;;;;;;21.03;8.97;;;;;;;1.81;64.56;102423.03;4954606;28;98953;-87
2021/12/22 10:59:05;;;;;;;15.57;8.10;;;;;;;1.87;64.54;102440.47;4936564;28;102044;-87
2021/12/22 11:01:40;;;;;;;23.87;10.10;;;;;;;1.96;64.89;102453.63;4959969;28;96810;-86
2021/12/22 11:04:18;;;;;;;20.47;8.90;;;;;;;2.01;64.50;102426.88;4940759;28;99267;-87
2021/12/22 11:06:44;;;;;;;18.50;8.30;;;;;;;1.99;64.55;102436.56;4940205;28;100599;-86
2021/12/22 11:09:14;;;;;;;19.53;8.03;;;;;;;2.02;64.49;102427.66;4959075;28;98698;-87
2021/12/22 11:11:41;;;;;;;18.70;9.10;;;;;;;2.04;64.50;102425.31;4935381;28;97049;-86
2021/12/22 11:14:29;;;;;;;21.43;9.70;;;;;;;2.02;64.48;102403.22;4941816;28;96883;-87
2021/12/22 11:17:19;;;;;;;22.10;8.80;;;;;;;2.07;64.14;102414.47;4953491;28;102992;-87
2021/12/22 11:19:44;;;;;;;22.33;8.63;;;;;;;2.04;64.17;102411.75;4953799;28;98459;-87
2021/12/22 11:22:18;;;;;;;23.30;8.33;;;;;;;2.04;64.56;102417.97;4957113;28;96773;-88
2021/12/22 11:24:52;;;;;;;19.37;8.80;;;;;;;2.06;64.71;102420.28;4942467;28;97222;-88
2021/12/22 11:27:21;;;;;;;26.53;10.27;;;;;;;2.12;64.63;102421.41;4938789;28;97009;-87
2021/12/22 11:29:52;;;;;;;20.43;8.67;;;;;;;2.12;64.41;102415.97;4943834;28;97802;-88
2021/12/22 11:32:24;;;;;;;25.07;9.53;;;;;;;2.16;64.55;102430.34;4943795;28;96789;-87
2021/12/22 11:34:55;;;;;;;21.60;9.40;;;;;;;2.21;64.78;102409.00;4941047;28;97669;-87
2021/12/22 11:37:22;;;;;;;16.50;8.20;;;;;;;2.20;64.43;102431.91;4940866;28;99688;-87
2021/12/22 11:39:49;;;;;;;17.00;8.67;;;;;;;2.22;64.59;102409.78;4941354;28;97364;-87
2021/12/22 11:42:15;;;;;;;13.93;7.43;;;;;;;2.31;64.56;102415.56;4944102;28;96885;-88
2021/12/22 11:44:44;;;;;;;17.90;7.87;;;;;;;2.28;64.58;102422.56;4944810;28;97101;-87
2021/12/22 11:47:13;;;;;;;18.40;7.10;;;;;;;2.35;64.73;102410.13;4943385;28;100605;-87
2021/12/22 11:50:02;;;;;;;13.47;6.77;;;;;;;2.36;64.65;102398.84;4942472;28;97622;-87
2021/12/22 11:52:31;;;;;;;17.03;8.17;;;;;;;2.39;64.74;102408.94;4937414;28;97356;-87